Time;durP1;ratioP1;P1;durP2;ratioP2;P2;SDS_P1;SDS_P2;PMS_P1;PMS_P2;Temp;Humidity;BMP_temperature;BMP_pressure;BME280_temperature;BME280_humidity;BME280_pressure;Samples;Min_cycle;Max_cycle;Signal;HPM_P1;HPM_P2
2020/12/28 00:02:12;;;;;;;9.88;7.50;;;4.10;99.90;;;;;;5094518;28;20160;-76
2020/12/28 00:04:39;;;;;;;11.05;8.00;;;4.20;99.90;;;;;;5095841;28;20039;-76
2020/12/28 00:07:06;;;;;;;12.15;7.80;;;4.10;99.90;;;;;;5086748;28;20032;-75
2020/12/28 00:09:32;;;;;;;9.88;7.28;;;4.20;99.90;;;;;;5090107;28;20032;-76
2020/12/28 00:12:01;;;;;;;12.82;8.70;;;4.20;99.90;;;;;;5096318;28;20044;-76
2020/12/28 00:14:28;;;;;;;11.70;7.93;;;4.30;99.90;;;;;;5090194;28;20043;-75
2020/12/28 00:16:54;;;;;;;;;;;4.20;99.90;;;;;;5105434;28;20114;-75
2020/12/28 00:19:21;;;;;;;13.00;8.82;;;4.20;99.90;;;;;;5091771;28;19969;-75
2020/12/28 00:21:47;;;;;;;11.93;7.97;;;4.20;99.90;;;;;;5088820;28;20397;-76
2020/12/28 00:24:13;;;;;;;11.30;8.65;;;4.20;99.90;;;;;;5096420;28;20040;-76
2020/12/28 00:26:40;;;;;;;12.20;7.93;;;4.20;99.90;;;;;;5091051;28;20492;-76
2020/12/28 00:29:07;;;;;;;11.23;7.10;;;4.20;99.90;;;;;;5095496;28;20051;-76
2020/12/28 00:31:34;;;;;;;13.05;8.50;;;4.30;99.90;;;;;;5091330;28;20066;-76
2020/12/28 00:34:03;;;;;;;13.55;8.57;;;4.30;99.90;;;;;;5094281;28;20105;-76
2020/12/28 00:36:29;;;;;;;11.23;8.07;;;4.30;99.90;;;;;;5113643;27;20369;-75
2020/12/28 00:38:55;;;;;;;;;;;4.30;99.90;;;;;;5095579;28;20044;-76
2020/12/28 00:41:21;;;;;;;16.90;8.55;;;4.30;99.90;;;;;;5104484;28;19951;-76
2020/12/28 00:43:47;;;;;;;14.20;9.55;;;4.30;99.90;;;;;;5092576;28;20114;-75
2020/12/28 00:46:14;;;;;;;13.48;9.52;;;4.30;99.90;;;;;;5101481;28;20040;-76
2020/12/28 00:48:40;;;;;;;14.63;8.80;;;4.30;99.90;;;;;;5093324;28;20085;-76
2020/12/28 00:51:06;;;;;;;12.82;8.80;;;4.30;99.90;;;;;;5096156;28;20040;-76
2020/12/28 00:53:32;;;;;;;12.50;9.27;;;4.30;99.90;;;;;;5105575;28;20031;-76
2020/12/28 00:55:58;;;;;;;13.07;8.85;;;4.30;99.90;;;;;;5109225;28;20036;-76
2020/12/28 00:58:24;;;;;;;;;;;4.30;99.90;;;;;;5091668;28;20466;-77
2020/12/28 01:00:50;;;;;;;25.45;9.02;;;4.20;99.90;;;;;;5103799;27;19916;-77
2020/12/28 01:03:16;;;;;;;;;;;4.20;99.90;;;;;;5103936;28;20032;-76
2020/12/28 01:05:42;;;;;;;13.15;8.95;;;4.20;99.90;;;;;;5095143;28;19920;-76
2020/12/28 01:08:09;;;;;;;17.63;9.35;;;4.20;99.90;;;;;;5094112;28;20035;-76
2020/12/28 01:10:35;;;;;;;16.50;10.10;;;4.20;99.90;;;;;;5094699;28;20032;-76
2020/12/28 01:13:01;;;;;;;13.90;9.82;;;4.20;99.90;;;;;;5102166;28;20531;-76
2020/12/28 01:15:27;;;;;;;12.70;9.38;;;4.20;99.90;;;;;;5112016;27;20035;-75
2020/12/28 01:17:54;;;;;;;;;;;4.20;99.90;;;;;;5118176;27;20039;-76
2020/12/28 01:20:19;;;;;;;14.93;10.90;;;4.20;99.90;;;;;;5095372;28;19927;-76
2020/12/28 01:22:47;;;;;;;17.83;11.43;;;4.20;99.90;;;;;;5101450;28;20084;-76
2020/12/28 01:25:14;;;;;;;19.13;12.68;;;4.20;99.90;;;;;;5096015;28;20123;-76
2020/12/28 01:27:39;;;;;;;;;;;4.10;99.90;;;;;;5091807;28;20036;-76
2020/12/28 01:30:05;;;;;;;16.15;11.10;;;4.10;99.90;;;;;;5109004;28;19923;-77
2020/12/28 01:32:31;;;;;;;;;;;4.10;99.90;;;;;;5105620;28;20548;-76
2020/12/28 01:34:57;;;;;;;20.05;13.20;;;4.00;99.90;;;;;;5095741;28;19920;-76
2020/12/28 01:37:22;;;;;;;19.35;13.38;;;4.00;99.90;;;;;;5101536;28;20500;-76
2020/12/28 01:39:48;;;;;;;18.92;13.52;;;4.00;99.90;;;;;;5096090;28;20397;-76
2020/12/28 01:42:14;;;;;;;18.17;13.07;;;4.00;99.90;;;;;;5093767;28;20028;-77
2020/12/28 01:44:40;;;;;;;22.63;14.75;;;3.90;99.90;;;;;;5093256;28;20411;-76
2020/12/28 01:47:06;;;;;;;24.25;16.10;;;4.00;99.90;;;;;;5093067;28;20039;-76
2020/12/28 01:49:32;;;;;;;19.73;13.90;;;3.90;99.90;;;;;;5093823;28;20044;-76
2020/12/28 01:52:00;;;;;;;19.63;14.13;;;3.90;99.90;;;;;;5099684;28;20473;-76
2020/12/28 01:54:27;;;;;;;23.40;14.85;;;3.90;99.90;;;;;;5109532;28;20133;-76
2020/12/28 01:56:55;;;;;;;20.58;14.75;;;3.90;99.90;;;;;;5092575;28;20481;-76
2020/12/28 01:59:22;;;;;;;25.75;16.73;;;3.90;99.90;;;;;;5091413;28;20040;-76
2020/12/28 02:01:54;;;;;;;21.52;14.13;;;3.90;99.90;;;;;;5101063;28;20047;-76
2020/12/28 02:04:21;;;;;;;22.92;14.93;;;3.90;99.90;;;;;;5093588;28;20089;-76
2020/12/28 02:06:47;;;;;;;21.98;14.88;;;4.00;99.90;;;;;;5091420;28;20059;-76
2020/12/28 02:09:14;;;;;;;22.42;14.80;;;4.00;99.90;;;;;;5092537;28;20039;-76
2020/12/28 02:11:40;;;;;;;22.92;15.63;;;4.00;99.90;;;;;;5091798;28;20036;-76
2020/12/28 02:14:06;;;;;;;;;;;4.10;99.90;;;;;;5108708;28;20040;-76
2020/12/28 02:16:32;;;;;;;21.40;14.30;;;3.90;99.90;;;;;;5104469;28;19928;-76
2020/12/28 02:18:59;;;;;;;26.40;16.65;;;3.90;99.90;;;;;;5091206;28;20032;-76
2020/12/28 02:21:26;;;;;;;21.67;14.73;;;4.00;99.90;;;;;;5091134;28;20714;-76
2020/12/28 02:23:52;;;;;;;18.88;12.43;;;3.90;99.90;;;;;;5094377;28;20111;-77
2020/12/28 02:26:18;;;;;;;21.92;14.98;;;3.90;99.90;;;;;;5102252;28;20123;-76
2020/12/28 02:28:44;;;;;;;23.08;14.45;;;4.00;99.90;;;;;;5090811;28;20039;-77
2020/12/28 02:31:10;;;;;;;22.60;14.27;;;3.90;99.90;;;;;;5100398;28;20032;-76
2020/12/28 02:33:40;;;;;;;23.55;14.80;;;4.00;99.90;;;;;;5103716;28;20055;-76
2020/12/28 02:36:11;;;;;;;21.00;12.70;;;4.00;99.90;;;;;;5090934;28;20382;-77
2020/12/28 02:38:37;;;;;;;23.33;14.20;;;4.00;99.90;;;;;;5094678;28;20059;-76
2020/12/28 02:41:04;;;;;;;23.30;14.73;;;4.00;99.90;;;;;;5092319;28;20455;-76
2020/12/28 02:43:30;;;;;;;23.88;14.63;;;4.00;99.90;;;;;;5092035;28;20504;-76
2020/12/28 02:45:57;;;;;;;21.10;13.10;;;4.00;99.90;;;;;;5106083;28;20043;-76
2020/12/28 02:48:24;;;;;;;21.48;13.60;;;4.00;99.90;;;;;;5090863;28;20036;-76
2020/12/28 02:50:50;;;;;;;20.85;14.05;;;4.00;99.90;;;;;;5091146;28;20040;-76
2020/12/28 02:53:16;;;;;;;25.13;14.48;;;4.00;99.90;;;;;;5109411;28;20036;-76
2020/12/28 02:55:42;;;;;;;21.45;13.88;;;4.00;99.90;;;;;;5098151;28;20105;-77
2020/12/28 02:58:07;;;;;;;23.52;14.68;;;4.00;99.90;;;;;;5097921;28;20119;-76
2020/12/28 03:00:34;;;;;;;26.13;14.70;;;4.00;99.90;;;;;;5100584;28;20055;-77
2020/12/28 03:02:59;;;;;;;23.08;15.18;;;4.00;99.90;;;;;;5096319;28;20047;-77
2020/12/28 03:05:25;;;;;;;24.27;14.63;;;4.00;99.90;;;;;;5089021;28;20040;-76
2020/12/28 03:07:51;;;;;;;23.30;14.77;;;4.00;99.90;;;;;;5090362;28;20062;-76
2020/12/28 03:10:16;;;;;;;23.63;14.48;;;4.00;99.90;;;;;;5104610;28;20036;-76
2020/12/28 03:12:42;;;;;;;20.70;13.23;;;4.00;99.90;;;;;;5092766;28;20039;-77
2020/12/28 03:15:08;;;;;;;23.13;14.57;;;4.00;99.90;;;;;;5093573;28;20367;-76
2020/12/28 03:17:34;;;;;;;20.83;13.32;;;4.00;99.90;;;;;;5093073;28;20043;-76
2020/12/28 03:19:59;;;;;;;24.00;14.75;;;4.00;99.90;;;;;;5096911;28;20058;-76
2020/12/28 03:22:25;;;;;;;20.50;13.07;;;4.00;99.90;;;;;;5100455;28;20111;-77
2020/12/28 03:24:51;;;;;;;24.90;14.13;;;4.10;99.90;;;;;;5098001;28;20503;-77
2020/12/28 03:27:17;;;;;;;22.77;14.38;;;4.10;99.90;;;;;;5089766;28;20115;-76
2020/12/28 03:29:43;;;;;;;25.30;14.95;;;4.10;99.90;;;;;;5066019;28;20036;-76
2020/12/28 03:32:09;;;;;;;23.92;14.32;;;4.10;99.90;;;;;;5098583;28;20028;-76
2020/12/28 03:34:34;;;;;;;25.25;15.38;;;4.10;99.90;;;;;;5089142;28;20042;-76
2020/12/28 03:37:00;;;;;;;21.83;14.60;;;4.10;99.90;;;;;;5090511;28;20090;-76
2020/12/28 03:39:26;;;;;;;24.02;14.90;;;4.10;99.90;;;;;;5105534;28;20034;-76
2020/12/28 03:41:52;;;;;;;24.10;15.48;;;4.10;99.90;;;;;;5089824;28;20055;-76
2020/12/28 03:44:17;;;;;;;26.60;14.60;;;4.10;99.90;;;;;;5091248;28;20036;-76
2020/12/28 03:46:43;;;;;;;26.65;15.13;;;4.10;99.90;;;;;;5092107;28;20044;-76
2020/12/28 03:49:09;;;;;;;26.88;15.48;;;4.10;99.90;;;;;;5102122;28;20117;-76
2020/12/28 03:51:35;;;;;;;23.80;14.90;;;4.10;99.90;;;;;;5093546;28;20035;-76
2020/12/28 03:54:00;;;;;;;24.30;15.48;;;4.10;99.90;;;;;;5096036;28;20044;-77
2020/12/28 03:56:26;;;;;;;24.35;14.60;;;4.10;99.90;;;;;;5072320;28;20054;-76
2020/12/28 03:58:52;;;;;;;23.80;15.05;;;4.10;99.90;;;;;;5106890;28;20377;-76
2020/12/28 04:01:18;;;;;;;21.33;14.18;;;4.10;99.90;;;;;;5096157;28;20035;-76
2020/12/28 04:03:43;;;;;;;23.02;14.00;;;4.10;99.90;;;;;;5100433;28;20043;-76
2020/12/28 04:06:10;;;;;;;25.33;16.05;;;4.10;99.90;;;;;;5100268;28;20051;-76
2020/12/28 04:08:35;;;;;;;;;;;4.10;99.90;;;;;;5095377;28;20389;-76
2020/12/28 04:11:01;;;;;;;22.40;13.35;;;4.10;99.90;;;;;;5105372;28;19923;-76
2020/12/28 04:13:27;;;;;;;24.50;14.82;;;4.10;99.90;;;;;;5111654;28;20113;-77
2020/12/28 04:15:53;;;;;;;20.58;14.70;;;4.10;99.90;;;;;;5094756;28;20051;-77
2020/12/28 04:18:19;;;;;;;25.23;14.25;;;4.10;99.90;;;;;;5094749;28;20043;-77
2020/12/28 04:20:44;;;;;;;23.60;14.00;;;4.10;99.90;;;;;;5107623;28;20473;-77
2020/12/28 04:23:10;;;;;;;23.95;15.18;;;4.10;99.90;;;;;;5093571;28;20040;-77
2020/12/28 04:25:36;;;;;;;23.80;14.88;;;4.00;99.90;;;;;;5101456;28;20043;-77
2020/12/28 04:28:02;;;;;;;24.83;13.80;;;4.00;99.90;;;;;;5113550;28;20038;-77
2020/12/28 04:30:28;;;;;;;25.10;15.65;;;4.00;99.90;;;;;;5099988;27;20032;-77
2020/12/28 04:32:54;;;;;;;23.85;14.52;;;3.90;99.90;;;;;;5112711;27;20067;-77
2020/12/28 04:35:19;;;;;;;23.35;15.00;;;3.90;99.90;;;;;;5093904;28;20039;-77
2020/12/28 04:37:45;;;;;;;23.98;14.15;;;3.90;99.90;;;;;;5096603;28;20040;-77
2020/12/28 04:40:12;;;;;;;23.63;15.60;;;3.90;99.90;;;;;;5093040;28;20036;-77
2020/12/28 04:42:42;;;;;;;26.02;15.77;;;3.80;99.90;;;;;;5105913;28;20039;-77
2020/12/28 04:45:09;;;;;;;25.10;15.77;;;3.90;99.90;;;;;;5093758;28;20089;-77
2020/12/28 04:47:36;;;;;;;27.40;16.55;;;3.90;99.90;;;;;;5093988;28;20101;-77
2020/12/28 04:50:04;;;;;;;25.02;15.10;;;3.90;99.90;;;;;;5098012;28;20039;-77
2020/12/28 04:52:29;;;;;;;25.25;16.30;;;3.90;99.90;;;;;;5101173;28;20042;-77
2020/12/28 04:54:55;;;;;;;27.55;15.55;;;3.90;99.90;;;;;;5092245;28;20386;-77
2020/12/28 04:57:21;;;;;;;25.27;15.48;;;3.90;99.90;;;;;;5098694;28;20059;-77
2020/12/28 04:59:53;;;;;;;25.75;15.75;;;3.90;99.90;;;;;;5101835;28;20058;-77
2020/12/28 05:02:21;;;;;;;25.17;14.80;;;3.90;99.90;;;;;;5104540;28;20358;-77
2020/12/28 05:04:47;;;;;;;23.05;14.07;;;3.90;99.90;;;;;;5099855;28;20031;-77
2020/12/28 05:07:12;;;;;;;23.58;15.05;;;3.90;99.90;;;;;;5109524;27;20390;-77
2020/12/28 05:09:38;;;;;;;21.75;14.60;;;4.00;99.90;;;;;;5100879;28;20055;-77
2020/12/28 05:12:05;;;;;;;25.80;14.32;;;3.90;99.90;;;;;;5092356;28;20483;-77
2020/12/28 05:14:31;;;;;;;20.70;13.38;;;3.90;99.90;;;;;;5095037;27;20036;-77
2020/12/28 05:17:08;;;;;;;26.08;13.85;;;3.90;99.90;;;;;;5076094;28;20117;-77
2020/12/28 05:19:37;;;;;;;24.73;14.63;;;3.90;99.90;;;;;;5092212;28;20539;-77
2020/12/28 05:22:03;;;;;;;25.33;15.23;;;3.90;99.90;;;;;;5092038;28;20526;-77
2020/12/28 05:24:30;;;;;;;21.85;13.68;;;3.90;99.90;;;;;;5099323;28;20046;-77
2020/12/28 05:26:58;;;;;;;23.15;13.23;;;3.90;99.90;;;;;;5098706;28;20042;-77
2020/12/28 05:29:26;;;;;;;20.60;13.88;;;3.90;99.90;;;;;;5111980;28;20450;-77
2020/12/28 05:31:54;;;;;;;20.48;12.55;;;3.90;99.90;;;;;;5101759;28;20040;-78
2020/12/28 05:34:21;;;;;;;21.15;13.13;;;3.90;99.90;;;;;;5092598;28;20443;-77
2020/12/28 05:36:53;;;;;;;22.20;12.93;;;3.80;99.90;;;;;;5093402;28;20036;-77
2020/12/28 05:39:21;;;;;;;19.60;12.38;;;3.70;99.90;;;;;;5101421;28;20063;-77
2020/12/28 05:41:56;;;;;;;20.85;12.18;;;3.70;99.90;;;;;;5092579;28;20463;-77
2020/12/28 05:44:26;;;;;;;22.83;12.98;;;3.60;99.90;;;;;;5103241;28;20055;-77
2020/12/28 05:47:05;;;;;;;19.75;11.85;;;3.60;99.90;;;;;;5102924;28;20040;-76
2020/12/28 05:49:34;;;;;;;23.33;12.55;;;3.60;99.90;;;;;;5104429;28;20063;-77
2020/12/28 05:52:01;;;;;;;22.63;13.63;;;3.50;99.90;;;;;;5097398;28;20074;-77
2020/12/28 05:54:29;;;;;;;21.63;13.65;;;3.50;99.90;;;;;;5094909;28;20460;-76
2020/12/28 05:56:56;;;;;;;26.60;16.17;;;3.50;99.90;;;;;;5101463;28;20039;-77
2020/12/28 05:59:22;;;;;;;25.42;14.85;;;3.40;99.90;;;;;;5110866;28;20434;-77
2020/12/28 06:01:48;;;;;;;;;;;3.40;99.90;;;;;;5092949;28;20048;-77
2020/12/28 06:04:15;;;;;;;25.05;13.75;;;3.50;99.90;;;;;;5092557;28;19924;-76
2020/12/28 06:06:42;;;;;;;22.50;13.05;;;3.50;99.90;;;;;;5093582;28;20466;-77
2020/12/28 06:09:09;;;;;;;25.05;14.75;;;3.60;99.90;;;;;;5089391;28;20088;-77
2020/12/28 06:11:36;;;;;;;27.00;14.63;;;3.60;99.90;;;;;;5091532;28;20050;-77
2020/12/28 06:14:16;;;;;;;24.02;13.90;;;3.70;99.90;;;;;;5110080;28;20039;-77
2020/12/28 06:16:42;;;;;;;23.67;13.10;;;3.70;99.90;;;;;;5105462;28;20046;-76
2020/12/28 06:19:19;;;;;;;24.67;13.98;;;3.70;99.90;;;;;;5110249;28;20042;-77
2020/12/28 06:21:45;;;;;;;26.55;13.70;;;3.80;99.90;;;;;;5096714;28;20423;-77
2020/12/28 06:24:11;;;;;;;25.23;14.23;;;3.80;99.90;;;;;;5093240;28;20047;-77
2020/12/28 06:26:37;;;;;;;22.42;13.45;;;3.90;99.90;;;;;;5098759;28;20040;-77
2020/12/28 06:29:07;;;;;;;26.50;14.55;;;3.90;99.90;;;;;;5093212;28;20420;-77
2020/12/28 06:31:36;;;;;;;24.80;14.27;;;3.90;99.90;;;;;;5093421;28;20062;-77
2020/12/28 06:34:01;;;;;;;22.38;12.80;;;3.90;99.90;;;;;;5102464;28;20043;-77
2020/12/28 06:36:27;;;;;;;24.30;13.77;;;3.90;99.90;;;;;;5095080;28;20032;-76
2020/12/28 06:38:58;;;;;;;22.67;13.52;;;3.90;99.90;;;;;;5080888;28;20036;-77
2020/12/28 06:41:29;;;;;;;21.20;12.20;;;4.00;99.90;;;;;;5098741;28;20135;-76
2020/12/28 06:43:59;;;;;;;24.75;14.98;;;4.00;99.90;;;;;;5092200;28;20127;-76
2020/12/28 06:46:25;;;;;;;20.52;12.77;;;4.00;99.90;;;;;;5104387;28;20113;-75
2020/12/28 06:48:53;;;;;;;23.95;13.82;;;3.90;99.90;;;;;;5097399;28;20046;-76
2020/12/28 06:51:22;;;;;;;23.88;13.93;;;3.90;99.90;;;;;;5108136;28;20035;-77
2020/12/28 06:53:55;;;;;;;25.65;14.32;;;3.90;99.90;;;;;;5097076;28;20046;-76
2020/12/28 06:56:25;;;;;;;22.42;14.07;;;3.90;99.90;;;;;;5107166;28;20032;-79
2020/12/28 06:58:58;;;;;;;25.45;14.23;;;3.90;99.90;;;;;;5093004;28;20091;-80
2020/12/28 07:01:25;;;;;;;24.00;14.93;;;3.90;99.90;;;;;;5095361;28;20378;-78
2020/12/28 07:03:52;;;;;;;25.83;14.15;;;3.90;99.90;;;;;;5104662;28;20118;-77
2020/12/28 07:06:19;;;;;;;25.88;14.43;;;3.80;99.90;;;;;;5090894;28;20393;-77
2020/12/28 07:08:45;;;;;;;27.80;15.32;;;3.80;99.90;;;;;;5103708;28;20051;-77
2020/12/28 07:11:16;;;;;;;;;;;3.70;99.90;;;;;;5103460;28;20039;-77
2020/12/28 07:13:41;;;;;;;22.27;14.20;;;3.60;99.90;;;;;;5104966;28;19922;-77
2020/12/28 07:16:08;;;;;;;28.40;15.35;;;3.50;99.90;;;;;;5097054;28;20044;-77
2020/12/28 07:18:35;;;;;;;24.40;14.43;;;3.40;99.90;;;;;;5096560;28;20405;-78
2020/12/28 07:21:02;;;;;;;28.63;16.05;;;3.40;99.90;;;;;;5096986;28;20040;-80
2020/12/28 07:23:35;;;;;;;27.90;16.05;;;3.40;99.90;;;;;;5099801;28;20063;-77
2020/12/28 07:26:02;;;;;;;;;;;3.30;99.90;;;;;;5091837;28;20080;-77
2020/12/28 07:28:28;;;;;;;32.53;15.75;;;3.30;99.90;;;;;;5099939;28;19915;-77
2020/12/28 07:30:57;;;;;;;30.70;16.15;;;3.30;99.90;;;;;;5096627;28;20039;-77
2020/12/28 07:33:24;;;;;;;28.63;16.88;;;3.20;99.90;;;;;;5098862;28;20534;-77
2020/12/28 07:36:08;;;;;;;30.42;17.13;;;3.20;99.90;;;;;;5094888;28;20040;-77
2020/12/28 07:38:34;;;;;;;30.58;17.20;;;3.20;99.90;;;;;;5098425;28;20038;-77
2020/12/28 07:41:00;;;;;;;32.13;18.08;;;3.20;99.90;;;;;;5111977;28;20032;-77
2020/12/28 07:43:27;;;;;;;;;;;3.20;99.90;;;;;;5094962;28;20036;-77
2020/12/28 07:45:54;;;;;;;32.55;17.42;;;3.20;99.90;;;;;;5094119;28;19922;-77
2020/12/28 07:48:24;;;;;;;28.48;16.52;;;3.20;99.90;;;;;;5093983;28;20040;-77
2020/12/28 07:50:53;;;;;;;31.77;17.98;;;3.20;99.90;;;;;;5098546;28;20085;-76
2020/12/28 07:53:35;;;;;;;29.17;17.50;;;3.10;99.90;;;;;;5105875;28;20031;-75
2020/12/28 07:56:06;;;;;;;32.00;17.90;;;3.00;99.90;;;;;;5107383;28;20036;-76
2020/12/28 07:58:40;;;;;;;31.27;16.40;;;2.90;99.90;;;;;;5108424;28;20036;-76
2020/12/28 08:01:19;;;;;;;32.72;17.98;;;2.80;99.90;;;;;;5095397;28;20389;-76
2020/12/28 08:03:47;;;;;;;32.53;17.92;;;2.70;99.90;;;;;;5098300;28;20039;-76
2020/12/28 08:06:15;;;;;;;32.35;17.15;;;2.60;99.90;;;;;;5103228;28;20050;-75
2020/12/28 08:08:41;;;;;;;34.50;18.83;;;2.50;99.90;;;;;;5106742;28;20032;-75
2020/12/28 08:11:06;;;;;;;34.05;17.50;;;2.40;99.90;;;;;;5095197;28;20475;-76
2020/12/28 08:13:34;;;;;;;30.60;17.30;;;2.30;99.90;;;;;;5111142;27;20040;-78
2020/12/28 08:16:08;;;;;;;31.20;16.27;;;2.20;99.90;;;;;;5093485;28;20119;-76
2020/12/28 08:19:03;;;;;;;31.27;18.40;;;2.10;99.90;;;;;;5093403;28;20036;-76
2020/12/28 08:21:41;;;;;;;43.13;20.83;;;2.00;99.90;;;;;;5090583;28;20130;-77
2020/12/28 08:24:19;;;;;;;34.25;18.35;;;1.90;99.90;;;;;;5105692;28;20703;-76
2020/12/28 08:26:45;;;;;;;45.33;21.63;;;1.90;99.90;;;;;;5101836;28;20047;-76
2020/12/28 08:29:11;;;;;;;47.78;24.10;;;1.80;99.90;;;;;;5091681;28;20036;-77
2020/12/28 08:31:39;;;;;;;50.13;25.80;;;1.80;99.90;;;;;;5100017;28;20048;-76
2020/12/28 08:34:06;;;;;;;;;;;1.90;99.90;;;;;;5104037;28;20190;-76
2020/12/28 08:36:35;;;;;;;58.17;27.58;;;2.10;99.90;;;;;;5093039;28;20395;-76
2020/12/28 08:39:11;;;;;;;51.70;26.30;;;2.10;99.90;;;;;;5100983;28;20040;-77
2020/12/28 08:41:54;;;;;;;53.50;25.15;;;2.20;99.90;;;;;;5084818;28;20047;-78
2020/12/28 08:44:33;;;;;;;53.20;27.05;;;2.20;99.90;;;;;;5094045;28;20032;-75
2020/12/28 08:47:05;;;;;;;44.22;22.73;;;2.20;99.90;;;;;;5096275;28;20055;-78
2020/12/28 08:49:32;;;;;;;51.85;25.00;;;2.20;99.90;;;;;;5093621;28;20039;-77
2020/12/28 08:52:12;;;;;;;53.03;25.73;;;2.30;99.90;;;;;;5096250;28;20050;-76
2020/12/28 08:54:39;;;;;;;45.42;22.27;;;2.40;99.90;;;;;;5103586;28;20067;-77
2020/12/28 08:57:05;;;;;;;43.92;23.05;;;2.50;99.90;;;;;;5093918;28;20520;-78
2020/12/28 08:59:31;;;;;;;45.00;22.95;;;2.50;99.90;;;;;;5094268;28;20051;-76
2020/12/28 09:01:57;;;;;;;;;;;2.60;99.90;;;;;;5110083;28;20063;-76
2020/12/28 09:04:24;;;;;;;36.85;17.77;;;2.60;99.90;;;;;;5102524;28;19954;-76
2020/12/28 09:06:53;;;;;;;37.70;20.35;;;2.80;99.90;;;;;;5097369;27;20365;-77
2020/12/28 09:09:19;;;;;;;35.08;18.30;;;2.60;99.90;;;;;;5092848;28;20043;-79
2020/12/28 09:11:45;;;;;;;32.15;17.67;;;2.60;99.90;;;;;;5098155;28;20487;-77
2020/12/28 09:14:11;;;;;;;37.88;19.50;;;2.60;99.90;;;;;;5108602;28;20436;-78
2020/12/28 09:16:38;;;;;;;36.08;18.63;;;2.60;99.90;;;;;;5093656;28;20538;-77
2020/12/28 09:19:04;;;;;;;38.40;20.80;;;2.50;99.90;;;;;;5092286;28;20055;-77
2020/12/28 09:21:31;;;;;;;41.47;21.25;;;2.50;99.90;;;;;;5099394;28;20040;-77
2020/12/28 09:23:56;;;;;;;38.22;21.00;;;2.40;99.90;;;;;;5094519;28;20043;-76
2020/12/28 09:26:22;;;;;;;38.25;21.65;;;2.50;99.90;;;;;;5086313;28;20036;-76
2020/12/28 09:28:48;;;;;;;42.95;22.27;;;2.60;99.90;;;;;;5094948;28;20468;-76
2020/12/28 09:31:15;;;;;;;47.83;24.80;;;2.70;99.90;;;;;;5093873;28;20039;-76
2020/12/28 09:33:42;;;;;;;46.10;22.90;;;2.80;99.90;;;;;;5095978;28;20416;-76
2020/12/28 09:36:08;;;;;;;44.33;22.00;;;3.00;99.90;;;;;;5096360;28;20093;-77
2020/12/28 09:38:34;;;;;;;38.40;20.48;;;3.10;99.90;;;;;;5101418;28;20560;-76
2020/12/28 09:41:00;;;;;;;34.83;18.75;;;3.20;99.90;;;;;;5097888;28;20102;-78
2020/12/28 09:43:25;;;;;;;45.75;21.48;;;3.30;99.90;;;;;;5100402;28;20072;-79
2020/12/28 09:45:52;;;;;;;39.67;20.85;;;3.40;99.90;;;;;;5092072;28;20408;-77
2020/12/28 09:48:18;;;;;;;34.92;18.88;;;4.00;99.90;;;;;;5090534;28;20055;-76
2020/12/28 09:50:44;;;;;;;32.22;17.17;;;3.60;99.90;;;;;;5092067;28;20115;-80
2020/12/28 09:53:10;;;;;;;;;;;3.60;99.90;;;;;;5111235;28;20047;-80
2020/12/28 09:55:35;;;;;;;22.10;14.30;;;3.70;99.90;;;;;;5088814;28;19920;-81
2020/12/28 09:58:01;;;;;;;26.90;15.75;;;3.80;99.90;;;;;;5095853;28;20056;-80
2020/12/28 10:00:27;;;;;;;25.05;14.48;;;3.80;99.90;;;;;;5097397;28;20059;-84
2020/12/28 10:02:53;;;;;;;25.85;13.80;;;3.80;99.90;;;;;;5115309;28;20129;-76
2020/12/28 10:05:18;;;;;;;23.02;13.48;;;3.90;99.90;;;;;;5106616;28;20047;-79
2020/12/28 10:07:44;;;;;;;24.25;13.70;;;3.90;99.90;;;;;;5098581;28;20468;-77
2020/12/28 10:10:11;;;;;;;29.08;13.82;;;3.90;99.90;;;;;;5105559;28;20044;-79
2020/12/28 10:12:38;;;;;;;24.33;13.98;;;4.00;99.90;;;;;;5119833;28;20081;-77
2020/12/28 10:15:05;;;;;;;22.48;13.70;;;4.00;99.90;;;;;;5103406;28;20044;-80
2020/12/28 10:17:32;;;;;;;23.60;14.18;;;4.00;99.90;;;;;;5108883;28;20043;-81
2020/12/28 10:19:58;;;;;;;24.30;14.65;;;4.10;99.90;;;;;;5105027;28;20043;-78
2020/12/28 10:22:27;;;;;;;26.27;15.50;;;4.00;99.90;;;;;;5103168;28;20613;-80
2020/12/28 10:24:53;;;;;;;21.45;12.55;;;4.10;99.90;;;;;;5094350;28;20096;-77
2020/12/28 10:27:20;;;;;;;21.08;11.60;;;4.10;99.90;;;;;;5093782;28;20459;-79
2020/12/28 10:29:46;;;;;;;19.45;12.25;;;4.10;99.90;;;;;;5098172;28;20035;-80
2020/12/28 10:32:12;;;;;;;20.10;11.60;;;4.10;99.90;;;;;;5094227;28;20032;-80
2020/12/28 10:34:39;;;;;;;20.92;12.43;;;4.10;99.90;;;;;;5095452;28;20048;-77
2020/12/28 10:37:05;;;;;;;20.50;11.90;;;4.10;99.90;;;;;;5107820;28;20485;-78
2020/12/28 10:39:31;;;;;;;21.05;12.63;;;4.10;99.90;;;;;;5098354;28;20114;-81
2020/12/28 10:42:03;;;;;;;25.40;12.32;;;4.10;99.90;;;;;;5097708;28;20039;-78
2020/12/28 10:44:29;;;;;;;17.33;10.02;;;4.10;99.90;;;;;;5095403;28;20051;-80
2020/12/28 10:46:55;;;;;;;18.30;11.07;;;4.10;99.90;;;;;;5094620;28;20438;-79
2020/12/28 10:49:21;;;;;;;22.02;12.82;;;4.20;99.90;;;;;;5093208;28;20036;-79
2020/12/28 10:51:46;;;;;;;19.88;11.18;;;4.20;99.90;;;;;;5096680;28;20032;-79
2020/12/28 10:54:13;;;;;;;20.00;11.38;;;4.40;99.90;;;;;;5106812;28;20036;-79
2020/12/28 10:56:39;;;;;;;19.50;11.02;;;4.40;99.90;;;;;;5098931;28;20047;-83
2020/12/28 10:59:05;;;;;;;18.20;11.43;;;4.30;99.90;;;;;;5096557;28;20430;-79
2020/12/28 11:01:31;;;;;;;17.85;10.65;;;4.30;99.90;;;;;;5106540;28;20027;-81
2020/12/28 11:03:57;;;;;;;19.95;11.45;;;4.30;99.90;;;;;;5102754;28;20043;-82
2020/12/28 11:06:23;;;;;;;18.02;9.75;;;4.30;99.90;;;;;;5096914;28;20067;-78
2020/12/28 11:08:49;;;;;;;17.33;9.57;;;4.30;99.90;;;;;;5100398;28;20046;-78
2020/12/28 11:11:16;;;;;;;20.67;10.73;;;4.30;99.90;;;;;;5108786;28;20035;-80
2020/12/28 11:13:43;;;;;;;16.38;9.43;;;4.30;99.90;;;;;;5094391;28;20169;-77
2020/12/28 11:16:09;;;;;;;16.60;10.05;;;4.30;99.90;;;;;;5091684;28;20067;-80
2020/12/28 11:18:35;;;;;;;12.93;8.30;;;4.20;99.90;;;;;;5090912;28;20101;-80
2020/12/28 11:21:01;;;;;;;15.40;9.73;;;4.20;99.90;;;;;;5091237;28;20135;-79
2020/12/28 11:23:57;;;;;;;14.00;8.40;;;4.50;99.90;;;;;;5098831;28;20088;-82
2020/12/28 11:26:17;;;;;;;13.85;8.98;;;4.30;99.90;;;;;;5102072;28;20043;-81
2020/12/28 11:28:43;;;;;;;15.07;8.60;;;4.40;99.90;;;;;;5109873;28;20035;-77
2020/12/28 11:31:12;;;;;;;18.10;8.52;;;4.30;99.90;;;;;;5103243;28;20042;-82
2020/12/28 11:33:37;;;;;;;15.27;9.25;;;4.40;99.90;;;;;;5105739;28;20105;-77
2020/12/28 11:36:04;;;;;;;16.48;8.65;;;4.40;99.90;;;;;;5106252;28;20504;-83
2020/12/28 11:38:29;;;;;;;14.70;9.05;;;4.40;99.90;;;;;;5107309;28;20150;-81
2020/12/28 11:40:55;;;;;;;13.82;8.50;;;4.50;99.90;;;;;;5100085;28;20044;-82
2020/12/28 11:43:21;;;;;;;14.88;9.15;;;4.40;99.90;;;;;;5108839;28;20385;-82
2020/12/28 11:45:47;;;;;;;15.65;8.90;;;4.40;99.90;;;;;;5104788;28;20445;-80
2020/12/28 11:48:13;;;;;;;15.63;9.05;;;4.30;99.90;;;;;;5104341;28;20056;-82
2020/12/28 11:50:39;;;;;;;17.13;9.43;;;4.30;99.90;;;;;;5095460;28;20111;-84
2020/12/28 11:53:05;;;;;;;12.93;7.93;;;4.30;99.90;;;;;;5105315;28;20110;-84
2020/12/28 11:56:02;;;;;;;15.82;8.57;;;4.20;99.90;;;;;;5101715;28;20044;-85
2020/12/28 11:58:16;;;;;;;13.30;7.88;;;4.20;99.90;;;;;;5091339;28;20044;-80
2020/12/28 12:00:42;;;;;;;13.98;8.02;;;4.30;99.90;;;;;;5091435;28;20538;-81
2020/12/28 12:03:08;;;;;;;14.25;7.75;;;4.30;99.90;;;;;;5086438;28;20051;-86
2020/12/28 12:05:34;;;;;;;12.75;6.70;;;4.40;99.90;;;;;;5103707;28;20110;-77
2020/12/28 12:08:00;;;;;;;;;;;4.30;99.90;;;;;;5097619;28;20499;-83
2020/12/28 12:10:26;;;;;;;12.50;6.28;;;4.40;99.90;;;;;;5099361;28;19915;-82
2020/12/28 12:12:52;;;;;;;12.77;6.47;;;4.40;99.90;;;;;;5097167;28;20613;-78
2020/12/28 12:15:18;;;;;;;16.10;6.53;;;4.50;99.90;;;;;;5099108;28;20465;-82
2020/12/28 12:17:44;;;;;;;10.85;6.05;;;4.50;99.90;;;;;;5104930;28;20043;-83
2020/12/28 12:20:10;;;;;;;11.35;5.70;;;4.90;99.90;;;;;;5093246;28;20046;-80
2020/12/28 12:22:36;;;;;;;9.65;6.05;;;4.70;99.90;;;;;;5095862;28;20470;-83
2020/12/28 12:25:01;;;;;;;12.07;6.70;;;4.80;99.90;;;;;;5100716;28;20036;-79
2020/12/28 12:27:27;;;;;;;13.60;7.10;;;4.90;99.90;;;;;;5096911;28;20435;-82
2020/12/28 12:29:53;;;;;;;11.48;6.20;;;4.90;99.90;;;;;;5109469;28;20095;-81
2020/12/28 12:32:19;;;;;;;10.90;5.60;;;5.00;99.90;;;;;;5098964;28;20036;-81
2020/12/28 12:34:44;;;;;;;12.13;6.53;;;5.10;99.90;;;;;;5095212;28;20040;-79
2020/12/28 12:37:12;;;;;;;11.82;5.32;;;5.10;99.90;;;;;;5108601;28;20172;-78
2020/12/28 12:39:38;;;;;;;10.77;5.28;;;5.10;99.90;;;;;;5094221;28;20589;-82
2020/12/28 12:42:03;;;;;;;10.32;5.35;;;5.10;99.90;;;;;;5098823;28;20036;-79
2020/12/28 12:44:29;;;;;;;11.13;5.90;;;5.10;99.90;;;;;;5115019;28;20452;-78
2020/12/28 12:46:55;;;;;;;11.20;5.85;;;5.20;99.90;;;;;;5096959;28;20032;-78